Time;durP1;ratioP1;P1;durP2;ratioP2;P2;SDS_P1;SDS_P2;PMS_P1;PMS_P2;Temp;Humidity;BMP_temperature;BMP_pressure;BME280_temperature;BME280_humidity;BME280_pressure;Samples;Min_cycle;Max_cycle;Signal;HPM_P1;HPM_P2
2023/04/25 00:01:18;;;;;;;12.02;2.30;;;9.50;99.90;;;;;;4976799;28;20030;-75
2023/04/25 00:03:45;;;;;;;15.20;2.78;;;9.60;99.90;;;;;;4976249;28;20451;-75
2023/04/25 00:06:11;;;;;;;9.95;2.03;;;9.60;99.90;;;;;;4974961;28;20117;-75
2023/04/25 00:08:37;;;;;;;6.85;1.58;;;9.60;99.90;;;;;;4975852;28;20066;-75
2023/04/25 00:11:03;;;;;;;9.52;1.48;;;9.70;99.90;;;;;;4974836;28;20502;-75
2023/04/25 00:13:29;;;;;;;15.68;2.08;;;9.70;99.90;;;;;;4991458;28;20035;-75
2023/04/25 00:15:56;;;;;;;10.00;2.65;;;9.70;99.90;;;;;;4976015;28;20146;-75
2023/04/25 00:18:22;;;;;;;14.85;2.15;;;9.70;99.90;;;;;;4974709;28;20035;-75
2023/04/25 00:20:48;;;;;;;11.90;2.20;;;9.70;99.90;;;;;;4974651;28;20039;-75
2023/04/25 00:23:17;;;;;;;11.35;2.67;;;9.70;99.90;;;;;;4976122;28;20031;-75
2023/04/25 00:25:47;;;;;;;12.48;2.47;;;9.70;99.90;;;;;;4975721;28;20050;-75
2023/04/25 00:28:14;;;;;;;15.18;2.60;;;9.60;99.90;;;;;;4974476;28;20483;-75
2023/04/25 00:30:40;;;;;;;14.43;2.00;;;9.60;99.90;;;;;;4991246;28;20027;-76
2023/04/25 00:33:07;;;;;;;12.00;2.20;;;9.60;99.90;;;;;;4975635;28;20054;-75
2023/04/25 00:35:32;;;;;;;14.02;2.63;;;9.60;99.90;;;;;;4975605;28;20085;-75
2023/04/25 00:37:58;;;;;;;13.38;2.20;;;9.60;99.90;;;;;;4974358;28;20035;-75
2023/04/25 00:40:24;;;;;;;12.13;2.08;;;9.50;99.90;;;;;;4973927;28;20039;-75
2023/04/25 00:42:52;;;;;;;9.77;2.28;;;9.60;99.90;;;;;;4975450;28;20038;-75
2023/04/25 00:45:19;;;;;;;17.90;2.65;;;9.50;99.90;;;;;;4976027;28;20030;-75
2023/04/25 00:47:45;;;;;;;12.93;2.13;;;9.50;99.90;;;;;;4975468;28;20027;-75
2023/04/25 00:50:12;;;;;;;14.20;2.50;;;9.40;99.90;;;;;;4975343;28;20030;-75
2023/04/25 00:52:43;;;;;;;12.65;2.15;;;9.40;99.90;;;;;;4975370;28;20062;-75
2023/04/25 00:55:12;;;;;;;14.85;2.90;;;9.40;99.90;;;;;;4975554;28;20026;-75
2023/04/25 00:57:38;;;;;;;12.13;2.58;;;9.40;99.90;;;;;;4990180;28;20154;-75
2023/04/25 01:00:06;;;;;;;12.30;2.60;;;9.40;99.90;;;;;;4974928;28;20034;-75
2023/04/25 01:02:33;;;;;;;12.57;2.38;;;9.30;99.90;;;;;;4975121;28;20066;-75
2023/04/25 01:04:58;;;;;;;10.88;2.30;;;9.30;99.90;;;;;;4974930;28;20031;-75
2023/04/25 01:07:25;;;;;;;12.27;2.45;;;9.30;99.90;;;;;;4973759;28;20035;-76
2023/04/25 01:09:52;;;;;;;16.98;2.80;;;9.30;99.90;;;;;;4973937;28;20042;-75
2023/04/25 01:12:18;;;;;;;12.70;2.65;;;9.30;99.90;;;;;;4973522;28;20101;-75
2023/04/25 01:14:44;;;;;;;11.30;2.70;;;9.30;99.90;;;;;;4973639;28;20059;-75
2023/04/25 01:17:10;;;;;;;11.70;2.47;;;9.20;99.90;;;;;;4973790;28;20089;-75
2023/04/25 01:19:37;;;;;;;16.48;2.90;;;9.20;99.90;;;;;;4974953;28;20030;-75
2023/04/25 01:22:03;;;;;;;10.25;2.05;;;9.20;99.90;;;;;;4975272;28;20066;-75
2023/04/25 01:24:30;;;;;;;13.30;2.60;;;9.20;99.90;;;;;;4974997;28;20540;-75
2023/04/25 01:26:57;;;;;;;14.43;3.17;;;9.20;99.90;;;;;;4974676;28;20041;-75
2023/04/25 01:29:24;;;;;;;14.63;3.15;;;9.20;99.90;;;;;;4975431;28;20042;-75
2023/04/25 01:31:51;;;;;;;16.13;2.85;;;9.10;99.90;;;;;;4973722;28;20369;-75
2023/04/25 01:34:16;;;;;;;14.77;3.30;;;9.00;99.90;;;;;;4975092;28;20039;-75
2023/04/25 01:36:42;;;;;;;15.38;3.15;;;9.00;99.90;;;;;;4973433;28;20164;-75
2023/04/25 01:39:08;;;;;;;20.35;3.15;;;8.90;99.90;;;;;;4973980;28;20114;-75
2023/04/25 01:41:36;;;;;;;15.75;3.70;;;8.90;99.90;;;;;;4973526;28;20038;-75
2023/04/25 01:44:02;;;;;;;18.35;3.22;;;8.80;99.90;;;;;;4974784;28;20069;-75
2023/04/25 01:46:29;;;;;;;16.73;2.80;;;8.80;99.90;;;;;;4974785;28;20387;-75
2023/04/25 01:48:54;;;;;;;22.08;4.20;;;8.70;99.90;;;;;;4975238;28;20039;-75
2023/04/25 01:51:20;;;;;;;13.93;2.88;;;8.80;99.90;;;;;;4973611;28;20383;-75
2023/04/25 01:53:46;;;;;;;16.77;3.03;;;8.80;99.90;;;;;;4976722;28;20098;-75
2023/04/25 01:56:11;;;;;;;16.40;2.83;;;8.70;99.90;;;;;;4977150;28;20031;-75
2023/04/25 01:58:37;;;;;;;16.00;3.35;;;8.70;99.90;;;;;;4976973;28;20038;-75
2023/04/25 02:01:03;;;;;;;15.75;2.90;;;8.70;99.90;;;;;;4977223;28;20041;-75
2023/04/25 02:03:29;;;;;;;12.45;2.60;;;8.60;99.90;;;;;;4977702;28;20027;-75
2023/04/25 02:05:55;;;;;;;15.68;3.25;;;8.70;99.90;;;;;;4978316;28;20126;-75
2023/04/25 02:08:21;;;;;;;17.90;2.83;;;8.70;99.90;;;;;;4977160;28;20062;-74
2023/04/25 02:10:46;;;;;;;17.73;3.33;;;8.70;99.90;;;;;;4976984;28;20027;-75
2023/04/25 02:13:12;;;;;;;18.45;2.97;;;8.70;99.90;;;;;;4977083;28;20427;-74
2023/04/25 02:15:38;;;;;;;17.42;3.08;;;8.80;99.90;;;;;;4977791;28;20081;-74
2023/04/25 02:18:03;;;;;;;18.05;2.92;;;8.70;99.90;;;;;;4977524;28;20039;-74
2023/04/25 02:20:31;;;;;;;19.65;3.40;;;8.70;99.90;;;;;;4977169;28;20027;-74
2023/04/25 02:22:56;;;;;;;15.68;3.30;;;8.80;99.90;;;;;;4976837;28;20038;-75
2023/04/25 02:25:22;;;;;;;16.80;3.30;;;8.80;99.90;;;;;;4976867;28;20039;-75
2023/04/25 02:27:48;;;;;;;16.70;3.03;;;8.80;99.90;;;;;;4978002;28;20035;-75
2023/04/25 02:30:14;;;;;;;14.85;3.28;;;8.70;99.90;;;;;;4978474;28;20077;-75
2023/04/25 02:32:41;;;;;;;20.27;3.53;;;8.70;99.90;;;;;;4977915;28;20030;-75
2023/04/25 02:35:07;;;;;;;16.58;2.90;;;8.70;99.90;;;;;;4977682;28;20060;-75
2023/04/25 02:37:34;;;;;;;16.08;3.22;;;8.70;99.90;;;;;;4976276;28;20093;-75
2023/04/25 02:40:00;;;;;;;18.02;3.22;;;8.70;99.90;;;;;;4992738;28;20026;-75
2023/04/25 02:42:27;;;;;;;12.18;2.70;;;8.70;99.90;;;;;;4977695;28;20110;-75
2023/04/25 02:44:53;;;;;;;15.27;2.85;;;8.70;99.90;;;;;;4993193;28;20491;-75
2023/04/25 02:47:18;;;;;;;18.98;2.75;;;8.60;99.90;;;;;;4976677;28;20066;-75
2023/04/25 02:49:45;;;;;;;23.85;3.30;;;8.60;99.90;;;;;;4976611;28;20114;-76
2023/04/25 02:52:11;;;;;;;16.67;2.83;;;8.60;99.90;;;;;;4976362;28;20375;-75
2023/04/25 02:54:36;;;;;;;17.42;3.72;;;8.60;99.90;;;;;;4978025;28;20110;-75
2023/04/25 02:57:02;;;;;;;15.57;3.10;;;8.50;99.90;;;;;;4977342;28;20050;-75
2023/04/25 02:59:28;;;;;;;14.70;2.78;;;8.50;99.90;;;;;;4976304;28;20027;-75
2023/04/25 03:01:54;;;;;;;15.90;2.95;;;8.50;99.90;;;;;;4977377;28;20436;-75
2023/04/25 03:04:20;;;;;;;17.50;2.83;;;8.50;99.90;;;;;;4976932;28;20030;-75
2023/04/25 03:06:46;;;;;;;13.05;2.58;;;8.50;99.90;;;;;;4976386;28;20031;-75
2023/04/25 03:09:12;;;;;;;12.13;2.20;;;8.40;99.90;;;;;;4976193;28;20361;-75
2023/04/25 03:11:39;;;;;;;17.27;2.83;;;8.50;99.90;;;;;;4976046;28;20134;-75
2023/04/25 03:14:04;;;;;;;15.75;3.08;;;8.50;99.90;;;;;;4976250;28;20459;-75
2023/04/25 03:16:30;;;;;;;18.17;3.20;;;8.50;99.90;;;;;;4976115;28;20042;-75
2023/04/25 03:18:56;;;;;;;13.40;1.98;;;8.40;99.90;;;;;;4976408;28;20031;-75
2023/04/25 03:21:22;;;;;;;14.70;2.72;;;8.40;99.90;;;;;;4976692;28;20058;-75
2023/04/25 03:23:48;;;;;;;17.90;2.63;;;8.40;99.90;;;;;;4976475;28;20449;-75
2023/04/25 03:26:14;;;;;;;15.63;2.92;;;8.50;99.90;;;;;;4975479;28;20042;-75
2023/04/25 03:28:40;;;;;;;16.08;2.20;;;8.50;99.90;;;;;;4977165;28;20470;-75
2023/04/25 03:31:05;;;;;;;10.88;2.38;;;8.50;99.90;;;;;;4976868;28;20053;-75
2023/04/25 03:33:31;;;;;;;17.90;2.78;;;8.50;99.90;;;;;;4977075;28;20509;-75
2023/04/25 03:35:57;;;;;;;13.50;2.53;;;8.60;99.90;;;;;;4975695;28;20383;-75
2023/04/25 03:38:23;;;;;;;13.98;2.38;;;8.60;99.90;;;;;;4975426;28;20045;-75
2023/04/25 03:40:50;;;;;;;14.90;2.45;;;8.60;99.90;;;;;;4976581;28;20031;-75
2023/04/25 03:43:16;;;;;;;16.58;2.65;;;8.70;99.90;;;;;;4976017;28;20039;-75
2023/04/25 03:45:41;;;;;;;11.82;2.60;;;8.70;99.90;;;;;;4975081;28;20042;-75
2023/04/25 03:48:07;;;;;;;14.63;2.40;;;8.70;99.90;;;;;;4975845;28;20035;-75
2023/04/25 03:50:33;;;;;;;12.18;2.45;;;8.70;99.90;;;;;;4975372;28;20463;-75
2023/04/25 03:52:59;;;;;;;14.55;2.78;;;8.70;99.90;;;;;;4976674;28;20043;-75
2023/04/25 03:55:24;;;;;;;11.15;2.83;;;8.70;99.90;;;;;;4975669;28;20371;-75
2023/04/25 03:57:50;;;;;;;13.40;2.10;;;8.80;99.90;;;;;;4975125;28;20035;-75
2023/04/25 04:00:16;;;;;;;16.90;3.83;;;8.70;99.90;;;;;;4976280;28;20095;-75
2023/04/25 04:02:42;;;;;;;13.38;2.78;;;8.60;99.90;;;;;;4975198;28;20125;-75
2023/04/25 04:05:07;;;;;;;12.98;2.35;;;8.60;99.90;;;;;;4976363;28;20027;-75
2023/04/25 04:07:35;;;;;;;18.73;2.58;;;8.50;99.90;;;;;;4976308;28;20061;-74
2023/04/25 04:10:01;;;;;;;10.02;2.20;;;8.50;99.90;;;;;;4975356;28;20035;-75
2023/04/25 04:12:26;;;;;;;12.75;2.65;;;8.50;99.90;;;;;;4975113;28;20117;-75
2023/04/25 04:14:52;;;;;;;17.23;3.10;;;8.50;99.90;;;;;;4976316;28;20676;-75
2023/04/25 04:17:17;;;;;;;18.88;3.83;;;8.40;99.90;;;;;;4975518;28;20035;-75
2023/04/25 04:19:44;;;;;;;13.30;2.83;;;8.40;99.90;;;;;;4975735;28;20035;-75
2023/04/25 04:22:10;;;;;;;12.90;2.55;;;8.40;99.90;;;;;;4974450;28;20027;-75
2023/04/25 04:24:35;;;;;;;19.88;2.53;;;8.30;99.90;;;;;;4975099;28;20027;-75
2023/04/25 04:27:01;;;;;;;11.05;2.30;;;8.30;99.90;;;;;;4958384;28;20030;-75
2023/04/25 04:29:27;;;;;;;13.48;2.72;;;8.20;99.90;;;;;;4975582;28;20531;-75
2023/04/25 04:31:52;;;;;;;15.02;2.72;;;8.20;99.90;;;;;;4975580;28;20027;-75
2023/04/25 04:34:18;;;;;;;14.48;2.85;;;8.10;99.90;;;;;;4974170;28;20094;-75
2023/04/25 04:36:46;;;;;;;19.83;3.33;;;8.10;99.90;;;;;;4975347;28;20098;-74
2023/04/25 04:39:12;;;;;;;12.70;2.50;;;8.10;99.90;;;;;;4973854;28;20031;-75
2023/04/25 04:41:38;;;;;;;12.23;2.90;;;8.10;99.90;;;;;;4975374;28;20089;-75
2023/04/25 04:44:06;;;;;;;19.10;2.70;;;8.20;99.90;;;;;;4975602;28;20379;-74
2023/04/25 04:46:37;;;;;;;13.65;2.45;;;8.20;99.90;;;;;;4975552;28;20035;-75
2023/04/25 04:49:05;;;;;;;17.40;2.40;;;8.10;99.90;;;;;;4990738;28;20039;-74
2023/04/25 04:51:31;;;;;;;13.68;3.75;;;8.10;99.90;;;;;;4975521;28;20030;-75
2023/04/25 04:53:58;;;;;;;13.70;3.03;;;8.10;99.90;;;;;;4974003;28;20118;-75
2023/04/25 04:56:25;;;;;;;12.73;2.92;;;8.10;99.90;;;;;;4974724;28;20050;-75
2023/04/25 04:58:52;;;;;;;15.23;2.83;;;8.10;99.90;;;;;;4973895;28;20027;-75
2023/04/25 05:01:18;;;;;;;18.17;2.67;;;8.10;99.90;;;;;;4974303;28;20034;-75
2023/04/25 05:03:43;;;;;;;15.45;3.13;;;8.10;99.90;;;;;;4973914;28;20035;-75
2023/04/25 05:06:09;;;;;;;12.50;2.63;;;8.10;99.90;;;;;;4973565;28;20042;-75
2023/04/25 05:08:36;;;;;;;18.02;2.80;;;8.10;99.90;;;;;;4990164;28;20038;-75
2023/04/25 05:11:02;;;;;;;16.50;2.75;;;8.10;99.90;;;;;;4973691;28;20483;-75
2023/04/25 05:13:27;;;;;;;15.65;3.55;;;8.00;99.90;;;;;;4973778;28;20050;-75
2023/04/25 05:15:53;;;;;;;19.38;3.55;;;8.00;99.90;;;;;;4974759;28;20209;-75
2023/04/25 05:18:19;;;;;;;17.02;2.95;;;7.80;99.90;;;;;;4973644;28;20496;-75
2023/04/25 05:20:44;;;;;;;13.70;3.08;;;7.70;99.90;;;;;;4973322;28;20487;-75
2023/04/25 05:23:10;;;;;;;18.25;2.90;;;7.80;99.90;;;;;;4957398;28;20118;-75
2023/04/25 05:25:36;;;;;;;14.43;3.70;;;7.90;99.90;;;;;;4974105;28;20357;-75
2023/04/25 05:28:02;;;;;;;13.43;3.28;;;7.80;99.90;;;;;;4974700;28;20452;-74
2023/04/25 05:30:27;;;;;;;19.55;3.70;;;7.80;99.90;;;;;;4973663;28;20031;-75
2023/04/25 05:32:53;;;;;;;15.70;4.10;;;7.80;99.90;;;;;;4975112;28;20518;-74
2023/04/25 05:35:19;;;;;;;19.48;3.47;;;7.90;99.90;;;;;;4974466;28;20042;-75
2023/04/25 05:37:44;;;;;;;16.65;2.92;;;7.90;99.90;;;;;;4974505;28;20070;-75
2023/04/25 05:40:10;;;;;;;12.85;3.05;;;8.10;99.90;;;;;;4957553;28;20059;-75
2023/04/25 05:42:36;;;;;;;14.27;3.53;;;8.20;99.90;;;;;;4974748;28;20408;-75
2023/04/25 05:45:02;;;;;;;13.02;2.38;;;8.20;99.90;;;;;;4974726;28;20118;-75
2023/04/25 05:47:27;;;;;;;13.95;2.92;;;8.30;99.90;;;;;;4974668;28;20035;-75
2023/04/25 05:49:53;;;;;;;9.10;2.55;;;8.30;99.90;;;;;;4974305;28;20039;-76
2023/04/25 05:52:19;;;;;;;20.02;3.15;;;8.40;99.90;;;;;;4975005;28;20026;-75
2023/04/25 05:54:44;;;;;;;16.45;3.38;;;8.40;99.90;;;;;;4975180;28;20065;-76
2023/04/25 05:57:25;;;;;;;9.20;2.45;;;8.30;99.90;;;;;;4973277;28;20407;-75
2023/04/25 05:59:51;;;;;;;12.20;2.90;;;8.30;99.90;;;;;;4974924;28;20027;-75
2023/04/25 06:02:17;;;;;;;15.98;2.53;;;8.40;99.90;;;;;;4990032;28;20046;-75
2023/04/25 06:04:43;;;;;;;11.02;2.60;;;8.50;99.90;;;;;;4974518;28;20062;-75
2023/04/25 06:07:09;;;;;;;13.45;2.60;;;8.50;99.90;;;;;;4974579;28;20074;-75
2023/04/25 06:09:34;;;;;;;16.80;2.90;;;8.40;99.90;;;;;;4974490;28;20486;-75
2023/04/25 06:12:01;;;;;;;14.90;2.72;;;8.40;99.90;;;;;;4973139;28;20387;-75
2023/04/25 06:14:27;;;;;;;16.65;3.00;;;8.30;99.90;;;;;;4974567;28;20027;-75
2023/04/25 06:16:52;;;;;;;16.75;3.70;;;8.30;99.90;;;;;;4973732;28;20059;-75
2023/04/25 06:19:18;;;;;;;15.43;2.55;;;8.20;99.90;;;;;;4973121;28;20046;-75
2023/04/25 06:21:44;;;;;;;12.63;3.00;;;8.00;99.90;;;;;;4989340;28;20086;-75
2023/04/25 06:24:10;;;;;;;18.02;3.58;;;7.90;99.90;;;;;;4989335;28;20122;-75
2023/04/25 06:26:35;;;;;;;15.18;3.20;;;7.90;99.90;;;;;;4973116;28;20128;-75
2023/04/25 06:29:01;;;;;;;15.05;3.13;;;7.90;99.90;;;;;;4956845;28;20540;-75
2023/04/25 06:31:28;;;;;;;14.82;2.85;;;7.90;99.90;;;;;;4973697;28;20065;-75
2023/04/25 06:33:54;;;;;;;14.23;3.17;;;7.80;99.90;;;;;;4972956;28;20130;-75
2023/04/25 06:36:24;;;;;;;16.45;3.10;;;7.90;99.90;;;;;;4974182;28;20472;-75
2023/04/25 06:38:52;;;;;;;18.95;3.70;;;7.90;99.90;;;;;;4958322;28;20038;-75
2023/04/25 06:41:17;;;;;;;16.33;3.28;;;8.00;99.90;;;;;;4976710;28;20027;-75
2023/04/25 06:43:43;;;;;;;11.82;2.75;;;8.10;99.90;;;;;;4976439;28;20082;-75
2023/04/25 06:46:09;;;;;;;16.08;2.92;;;8.30;99.90;;;;;;4977578;28;20031;-75
2023/04/25 06:48:34;;;;;;;20.50;3.17;;;8.40;99.90;;;;;;4977565;28;20419;-75
2023/04/25 06:51:00;;;;;;;14.88;2.65;;;8.50;99.90;;;;;;4977477;28;20032;-75
2023/04/25 06:53:26;;;;;;;14.05;2.58;;;8.60;99.90;;;;;;4977680;28;20121;-75
2023/04/25 06:55:51;;;;;;;13.32;2.35;;;8.70;99.90;;;;;;4977498;28;20483;-75
2023/04/25 06:58:17;;;;;;;12.85;2.35;;;8.90;99.90;;;;;;4975715;28;20041;-77
2023/04/25 07:00:43;;;;;;;21.42;3.40;;;9.00;99.90;;;;;;4977334;28;20083;-75
2023/04/25 07:03:09;;;;;;;16.35;2.20;;;9.10;99.90;;;;;;4977297;28;20440;-75
2023/04/25 07:05:35;;;;;;;15.60;2.28;;;9.20;99.90;;;;;;4976147;28;20031;-75
2023/04/25 07:08:01;;;;;;;12.32;2.38;;;9.20;99.90;;;;;;4977437;28;20448;-75
2023/04/25 07:10:27;;;;;;;11.88;1.95;;;9.20;99.90;;;;;;4992655;28;20481;-75
2023/04/25 07:12:53;;;;;;;8.25;1.80;;;9.30;99.90;;;;;;4978027;28;20039;-75
2023/04/25 07:15:18;;;;;;;8.88;2.00;;;9.30;99.90;;;;;;4977271;28;20054;-75
2023/04/25 07:17:44;;;;;;;10.88;2.15;;;9.40;99.90;;;;;;4976471;28;20375;-75
2023/04/25 07:20:10;;;;;;;8.85;2.03;;;9.60;99.90;;;;;;4959577;28;20414;-74
2023/04/25 07:22:36;;;;;;;9.13;1.73;;;9.70;99.90;;;;;;4960509;28;20526;-75
2023/04/25 07:25:02;;;;;;;9.57;2.25;;;9.90;99.90;;;;;;4976674;28;20110;-75
2023/04/25 07:27:28;;;;;;;9.98;2.10;;;9.90;99.90;;;;;;4977197;28;20068;-74
2023/04/25 07:29:54;;;;;;;10.85;2.10;;;10.00;99.90;;;;;;4975584;28;20078;-75
2023/04/25 07:32:19;;;;;;;11.73;1.70;;;10.10;99.90;;;;;;4977042;28;20035;-75
2023/04/25 07:34:45;;;;;;;10.55;1.52;;;10.20;99.90;;;;;;4975499;28;20455;-76
2023/04/25 07:37:10;;;;;;;10.98;1.20;;;10.30;99.90;;;;;;4975379;28;20542;-75
2023/04/25 07:39:37;;;;;;;8.00;1.02;;;10.20;99.90;;;;;;4975395;28;20035;-76
2023/04/25 07:42:03;;;;;;;9.88;1.80;;;10.40;99.90;;;;;;4976614;28;20086;-75
2023/04/25 07:44:30;;;;;;;13.75;2.22;;;10.40;99.90;;;;;;4977378;28;20085;-75
2023/04/25 07:46:56;;;;;;;6.85;1.10;;;10.40;99.90;;;;;;4976994;28;20026;-75
2023/04/25 07:49:22;;;;;;;13.95;1.95;;;10.30;99.70;;;;;;4975236;28;20035;-75
2023/04/25 07:51:47;;;;;;;11.07;1.25;;;10.30;99.50;;;;;;4975573;28;20035;-75
2023/04/25 07:54:15;;;;;;;9.15;1.50;;;10.30;99.30;;;;;;4974838;28;20046;-74
2023/04/25 07:56:41;;;;;;;9.65;1.10;;;10.40;99.50;;;;;;4991911;28;20050;-74
2023/04/25 07:59:06;;;;;;;10.02;1.23;;;10.30;98.00;;;;;;4976215;28;20464;-74
2023/04/25 08:01:34;;;;;;;11.93;1.88;;;10.30;98.30;;;;;;4975025;28;20062;-74
2023/04/25 08:03:59;;;;;;;6.63;1.10;;;10.30;98.00;;;;;;4976496;28;20106;-75
2023/04/25 08:06:25;;;;;;;6.88;0.75;;;10.50;97.50;;;;;;4976438;28;20121;-75
2023/04/25 08:08:51;;;;;;;7.40;1.10;;;10.60;97.50;;;;;;4976170;28;20073;-75
2023/04/25 08:11:17;;;;;;;10.88;0.95;;;10.70;96.90;;;;;;4976412;28;20092;-75
2023/04/25 08:13:42;;;;;;;8.68;0.93;;;10.80;96.70;;;;;;4976053;28;20042;-76
2023/04/25 08:16:08;;;;;;;8.00;1.25;;;10.90;96.70;;;;;;4974223;28;20411;-75
2023/04/25 08:18:33;;;;;;;7.85;1.02;;;11.10;96.60;;;;;;4974713;28;20491;-75
2023/04/25 08:20:59;;;;;;;6.38;0.75;;;11.30;95.30;;;;;;4975282;28;20367;-75
2023/04/25 08:23:25;;;;;;;5.93;0.60;;;11.40;94.30;;;;;;4974587;28;20027;-75
2023/04/25 08:25:51;;;;;;;5.85;0.70;;;11.50;93.70;;;;;;4975440;28;20038;-76
2023/04/25 08:28:16;;;;;;;6.50;0.50;;;11.70;92.80;;;;;;4975459;28;20035;-76
2023/04/25 08:30:42;;;;;;;5.65;0.60;;;11.70;91.10;;;;;;4975456;28;20037;-76
2023/04/25 08:33:07;;;;;;;5.88;0.50;;;11.80;90.20;;;;;;4975367;28;20468;-75
2023/04/25 08:35:33;;;;;;;8.52;0.82;;;12.00;89.60;;;;;;4974405;28;20041;-76
2023/04/25 08:38:00;;;;;;;8.40;0.90;;;12.10;88.20;;;;;;4975865;28;20022;-75
2023/04/25 08:40:29;;;;;;;8.02;0.85;;;12.00;87.80;;;;;;4975297;28;20424;-76
2023/04/25 08:42:58;;;;;;;3.75;0.50;;;11.80;86.40;;;;;;4975397;28;20066;-75
2023/04/25 08:45:27;;;;;;;5.75;0.65;;;11.70;87.00;;;;;;4975993;28;20027;-75
2023/04/25 08:47:53;;;;;;;6.72;0.80;;;11.50;87.90;;;;;;4975127;28;20262;-75
2023/04/25 08:50:21;;;;;;;9.55;1.33;;;11.50;89.00;;;;;;4974519;28;20027;-76
2023/04/25 08:52:50;;;;;;;6.90;0.90;;;11.30;88.60;;;;;;4975354;28;20027;-76
2023/04/25 08:55:16;;;;;;;7.20;0.50;;;11.20;88.70;;;;;;4975221;28;20027;-76
2023/04/25 08:57:43;;;;;;;4.97;0.70;;;11.20;90.00;;;;;;4975291;28;20526;-76
2023/04/25 09:00:12;;;;;;;4.18;0.47;;;11.20;90.30;;;;;;4974370;28;20080;-75
2023/04/25 09:02:39;;;;;;;8.00;0.60;;;11.30;89.90;;;;;;4975075;28;20022;-75
2023/04/25 09:05:06;;;;;;;10.13;0.90;;;11.30;90.20;;;;;;4975459;28;20102;-75
2023/04/25 09:07:32;;;;;;;9.52;1.30;;;11.20;89.40;;;;;;4975186;28;20066;-75
2023/04/25 09:10:01;;;;;;;6.05;0.60;;;11.10;89.70;;;;;;4974001;28;20031;-75
2023/04/25 09:12:28;;;;;;;4.88;0.40;;;11.00;88.20;;;;;;4973943;28;20038;-75
2023/04/25 09:15:08;;;;;;;5.80;0.40;;;10.80;84.60;;;;;;4974610;28;20070;-75
2023/04/25 09:17:34;;;;;;;8.38;1.10;;;10.60;85.70;;;;;;4974931;28;20046;-75
2023/04/25 09:20:14;;;;;;;5.10;0.57;;;10.60;87.90;;;;;;4973713;28;20026;-75
2023/04/25 09:22:40;;;;;;;8.77;0.98;;;10.60;89.20;;;;;;4974947;28;20023;-75
2023/04/25 09:25:11;;;;;;;5.45;0.80;;;10.70;90.40;;;;;;4973874;28;20054;-75
2023/04/25 09:27:52;;;;;;;7.55;1.27;;;10.70;90.00;;;;;;4974925;28;20035;-75
2023/04/25 09:30:19;;;;;;;6.25;0.50;;;10.70;90.10;;;;;;4975006;28;20081;-75
2023/04/25 09:32:45;;;;;;;5.00;0.43;;;10.60;90.40;;;;;;4974849;28;20026;-76
2023/04/25 09:35:22;;;;;;;5.28;0.47;;;10.50;90.30;;;;;;4973636;28;20035;-75
2023/04/25 09:37:48;;;;;;;6.00;0.50;;;10.50;90.00;;;;;;4975124;28;20069;-75
2023/04/25 09:40:14;;;;;;;9.55;0.60;;;10.50;88.00;;;;;;4974128;28;20031;-75
2023/04/25 09:42:41;;;;;;;6.75;0.40;;;10.50;87.10;;;;;;4989690;28;20121;-75
2023/04/25 09:45:07;;;;;;;4.35;0.45;;;10.60;87.30;;;;;;4975085;28;20027;-74
2023/04/25 09:47:38;;;;;;;4.95;0.65;;;10.60;85.60;;;;;;4957234;28;20042;-75
2023/04/25 09:50:18;;;;;;;6.47;0.60;;;10.80;86.90;;;;;;4974957;28;20085;-75
2023/04/25 09:52:44;;;;;;;7.82;0.60;;;11.10;87.30;;;;;;4975276;28;20038;-75
2023/04/25 09:55:10;;;;;;;6.30;0.60;;;11.40;85.70;;;;;;4974674;28;20031;-75
2023/04/25 09:57:39;;;;;;;2.35;0.30;;;11.60;83.30;;;;;;4974644;28;20063;-75
2023/04/25 10:00:10;;;;;;;7.85;0.82;;;11.70;83.00;;;;;;4974915;28;20467;-75
2023/04/25 10:02:38;;;;;;;4.50;0.50;;;11.90;81.70;;;;;;4958617;28;20031;-75
2023/04/25 10:05:06;;;;;;;4.18;0.60;;;11.90;80.60;;;;;;4974603;28;20030;-75
2023/04/25 10:07:37;;;;;;;4.50;0.50;;;12.10;82.20;;;;;;4974571;28;20031;-75
2023/04/25 10:10:04;;;;;;;4.50;0.43;;;12.20;79.10;;;;;;4974081;28;20523;-75
2023/04/25 10:12:32;;;;;;;4.38;0.70;;;12.20;78.70;;;;;;4974834;28;20027;-76
2023/04/25 10:14:58;;;;;;;6.05;0.50;;;12.10;77.10;;;;;;4976768;28;20093;-75
2023/04/25 10:17:25;;;;;;;8.45;0.98;;;11.90;75.70;;;;;;4977058;28;20130;-76
2023/04/25 10:19:51;;;;;;;5.03;0.65;;;11.70;78.10;;;;;;4977800;28;20117;-76
2023/04/25 10:22:32;;;;;;;6.70;0.40;;;11.50;81.40;;;;;;4976521;28;20039;-76
2023/04/25 10:24:58;;;;;;;3.10;0.40;;;11.50;82.70;;;;;;4978494;28;20109;-75
2023/04/25 10:27:23;;;;;;;5.38;0.47;;;11.60;83.50;;;;;;4978237;28;20053;-76
2023/04/25 10:30:21;;;;;;;4.63;0.40;;;11.70;82.50;;;;;;4977896;28;20039;-76
2023/04/25 10:32:49;;;;;;;6.22;0.57;;;11.80;78.50;;;;;;4976371;28;20043;-76
2023/04/25 10:35:17;;;;;;;4.18;0.60;;;11.70;77.80;;;;;;4960923;28;20027;-75
2023/04/25 10:37:57;;;;;;;5.38;0.52;;;11.60;77.80;;;;;;4977331;28;20495;-76
2023/04/25 10:40:23;;;;;;;6.00;0.70;;;11.50;79.20;;;;;;4977971;28;20058;-77
2023/04/25 10:42:48;;;;;;;5.75;0.77;;;11.30;81.20;;;;;;4976104;28;20037;-76
2023/04/25 10:45:14;;;;;;;7.97;0.70;;;11.10;84.60;;;;;;4976298;28;20448;-78
2023/04/25 10:47:46;;;;;;;5.18;0.77;;;11.10;86.70;;;;;;4977789;28;20027;-76
2023/04/25 10:50:14;;;;;;;9.30;0.70;;;11.10;87.40;;;;;;4977748;28;20108;-74
2023/04/25 10:52:40;;;;;;;5.60;0.73;;;11.00;88.20;;;;;;4976930;28;20030;-76
2023/04/25 10:55:06;;;;;;;6.78;0.98;;;10.90;89.50;;;;;;4980023;28;20053;-80
2023/04/25 10:57:39;;;;;;;8.27;0.60;;;11.10;90.50;;;;;;4982546;28;20039;-79
2023/04/25 11:00:11;;;;;;;4.25;0.55;;;11.40;90.60;;;;;;4981719;28;20069;-77
2023/04/25 11:02:42;;;;;;;10.15;0.88;;;11.30;90.10;;;;;;4982451;28;20498;-81
2023/04/25 11:05:10;;;;;;;6.97;1.30;;;11.20;90.30;;;;;;4991346;28;20363;-79
2023/04/25 11:07:46;;;;;;;5.45;0.40;;;11.10;90.10;;;;;;4997483;28;20471;-80
2023/04/25 11:10:13;;;;;;;4.88;0.60;;;11.10;89.70;;;;;;5002737;28;20435;-80
2023/04/25 11:12:39;;;;;;;7.72;0.40;;;11.30;88.90;;;;;;4994757;28;20026;-80
2023/04/25 11:15:07;;;;;;;3.97;0.50;;;11.40;87.90;;;;;;4996101;28;20077;-81
2023/04/25 11:17:33;;;;;;;6.38;0.50;;;11.50;84.70;;;;;;4984566;28;20049;-79
2023/04/25 11:19:59;;;;;;;4.90;0.50;;;11.50;84.00;;;;;;4979718;28;20039;-79
2023/04/25 11:22:27;;;;;;;8.10;1.23;;;11.60;85.50;;;;;;4975691;28;20464;-80
2023/04/25 11:24:53;;;;;;;3.38;0.30;;;11.80;82.20;;;;;;4976946;28;20039;-81
2023/04/25 11:27:19;;;;;;;5.32;0.30;;;11.90;81.70;;;;;;4977034;28;20481;-78
2023/04/25 11:29:47;;;;;;;3.08;0.30;;;12.10;81.20;;;;;;4992304;28;20113;-80
2023/04/25 11:32:15;;;;;;;4.35;0.75;;;12.50;78.20;;;;;;4976869;28;20023;-79
2023/04/25 11:34:43;;;;;;;3.97;0.20;;;12.80;71.70;;;;;;4976409;28;20031;-78
2023/04/25 11:37:09;;;;;;;2.28;0.50;;;13.00;72.50;;;;;;4976803;28;20041;-79
2023/04/25 11:39:34;;;;;;;3.13;0.20;;;13.20;71.90;;;;;;4975573;28;20035;-80
2023/04/25 11:42:01;;;;;;;3.33;0.40;;;13.50;73.50;;;;;;4975249;28;20118;-76
2023/04/25 11:44:27;;;;;;;3.65;0.40;;;13.70;69.50;;;;;;4975491;28;20478;-79
2023/04/25 11:46:53;;;;;;;2.08;0.20;;;13.70;69.20;;;;;;4976194;28;20472;-76
2023/04/25 11:49:19;;;;;;;3.05;0.30;;;13.60;66.40;;;;;;4975872;28;20030;-77
2023/04/25 11:51:46;;;;;;;3.78;0.30;;;13.40;66.00;;;;;;4975063;28;20026;-81
2023/04/25 11:54:12;;;;;;;4.25;0.30;;;13.10;65.90;;;;;;4975448;28;20036;-78
2023/04/25 11:56:42;;;;;;;3.28;0.32;;;13.10;66.30;;;;;;4976493;28;20038;-77
2023/04/25 11:59:08;;;;;;;4.32;0.47;;;13.20;64.60;;;;;;4958987;28;20463;-77
2023/04/25 12:01:39;;;;;;;6.63;1.15;;;13.20;64.70;;;;;;4975954;28;20494;-77
2023/04/25 12:04:16;;;;;;;3.58;0.30;;;13.40;65.00;;;;;;4975547;28;20119;-78
2023/04/25 12:06:46;;;;;;;1.45;0.30;;;13.40;64.20;;;;;;4975031;28;20034;-77
2023/04/25 12:09:15;;;;;;;2.17;0.30;;;13.20;64.20;;;;;;4976437;28;20027;-78
2023/04/25 12:12:05;;;;;;;5.85;0.52;;;13.00;64.20;;;;;;4976794;28;20035;-79
2023/04/25 12:14:33;;;;;;;2.88;0.30;;;12.70;66.30;;;;;;4975484;28;20452;-78
2023/04/25 12:17:01;;;;;;;4.88;0.30;;;12.50;70.40;;;;;;4977526;28;20039;-78
2023/04/25 12:19:33;;;;;;;6.45;0.50;;;12.30;72.50;;;;;;4975575;28;20026;-78
2023/04/25 12:22:03;;;;;;;3.17;0.40;;;12.10;72.90;;;;;;4991622;28;20033;-78
2023/04/25 12:24:29;;;;;;;3.72;0.52;;;11.90;74.50;;;;;;4980928;28;20051;-78
2023/04/25 12:27:04;;;;;;;4.63;0.35;;;11.70;76.90;;;;;;4981413;28;20035;-82
2023/04/25 12:29:31;;;;;;;2.78;0.40;;;11.70;78.20;;;;;;4990775;28;20090;-80
2023/04/25 12:31:57;;;;;;;6.43;0.82;;;11.70;79.20;;;;;;4975109;28;20081;-81
2023/04/25 12:34:23;;;;;;;4.32;0.45;;;11.70;79.80;;;;;;4975514;28;20474;-75
2023/04/25 12:36:51;;;;;;;4.28;0.70;;;11.70;79.50;;;;;;4973410;28;20047;-73
2023/04/25 12:39:24;;;;;;;2.42;0.35;;;11.70;79.80;;;;;;4974338;28;20042;-74
2023/04/25 12:41:54;;;;;;;3.75;0.50;;;11.70;80.30;;;;;;4974841;28;20031;-74
2023/04/25 12:44:21;;;;;;;5.90;0.75;;;11.60;79.40;;;;;;4974151;28;20101;-76
2023/04/25 12:46:47;;;;;;;3.92;0.50;;;11.50;78.40;;;;;;4975323;28;20030;-78